createdAt,value
2022-12-01T00:01:19.987Z,5.00
2022-12-01T00:03:47.271Z,4.70
2022-12-01T00:06:16.959Z,3.67
2022-12-01T00:09:03.990Z,3.30
2022-12-01T00:11:31.152Z,3.20
2022-12-01T00:13:58.056Z,3.07
2022-12-01T00:16:25.022Z,2.87
2022-12-01T00:18:53.216Z,3.17
2022-12-01T00:21:24.684Z,3.17
2022-12-01T00:23:54.165Z,2.70
2022-12-01T00:26:21.663Z,3.60
2022-12-01T00:28:50.203Z,5.20
2022-12-01T00:31:17.258Z,4.10
2022-12-01T00:33:44.176Z,3.53
2022-12-01T00:36:11.207Z,3.43
2022-12-01T00:38:38.453Z,3.37
2022-12-01T00:41:05.586Z,3.00
2022-12-01T00:43:32.435Z,2.50
2022-12-01T00:45:59.396Z,3.00
2022-12-01T00:48:26.379Z,4.13
2022-12-01T00:50:54.444Z,4.47
2022-12-01T00:53:23.203Z,4.33
2022-12-01T00:55:50.271Z,3.93
2022-12-01T00:58:17.207Z,3.60
2022-12-01T01:00:44.068Z,3.10
2022-12-01T01:03:11.742Z,5.30
2022-12-01T01:05:40.724Z,3.73
2022-12-01T01:08:08.979Z,2.90
2022-12-01T01:10:40.265Z,4.40
2022-12-01T01:13:07.678Z,3.90
2022-12-01T01:15:35.025Z,3.03
2022-12-01T01:18:02.257Z,2.50
2022-12-01T01:20:29.773Z,3.93
2022-12-01T01:22:56.836Z,3.50
2022-12-01T01:25:24.464Z,4.00
2022-12-01T01:27:51.676Z,4.83
2022-12-01T01:30:20.129Z,3.13
2022-12-01T01:32:47.516Z,2.23
2022-12-01T01:35:14.377Z,1.90
2022-12-01T01:37:41.211Z,2.53
2022-12-01T01:40:08.584Z,1.93
2022-12-01T01:42:35.454Z,2.90
2022-12-01T01:45:02.452Z,2.83
2022-12-01T01:47:37.024Z,2.33
2022-12-01T01:50:15.973Z,2.00
2022-12-01T01:52:50.429Z,2.00
2022-12-01T01:55:17.925Z,2.37
2022-12-01T01:57:46.540Z,2.63
2022-12-01T02:00:16.749Z,1.93
2022-12-01T02:02:45.955Z,2.10
2022-12-01T02:05:34.771Z,2.90
2022-12-01T02:08:03.540Z,2.20
2022-12-01T02:11:10.859Z,4.73
2022-12-01T02:14:06.467Z,2.00
2022-12-01T02:17:00.726Z,2.73
2022-12-01T02:20:06.213Z,2.37
2022-12-01T02:22:53.930Z,2.80
2022-12-01T02:25:42.614Z,3.13
2022-12-01T02:28:51.103Z,3.63
2022-12-01T02:31:30.655Z,3.63
2022-12-01T02:34:10.581Z,2.93
2022-12-01T02:36:50.567Z,2.27
2022-12-01T02:39:36.477Z,2.47
2022-12-01T02:42:49.785Z,2.43
2022-12-01T02:45:33.383Z,2.13
2022-12-01T02:48:03.171Z,2.60
2022-12-01T02:50:33.638Z,2.13
2022-12-01T02:53:03.196Z,2.93
2022-12-01T02:55:30.172Z,2.33
2022-12-01T02:57:57.050Z,2.60
2022-12-01T03:00:24.055Z,2.00
2022-12-01T03:03:26.688Z,1.70
2022-12-01T03:06:03.400Z,1.97
2022-12-01T03:08:46.216Z,3.67
2022-12-01T03:11:27.246Z,2.47
2022-12-01T03:14:17.129Z,2.43
2022-12-01T03:16:49.691Z,2.43
2022-12-01T03:19:51.822Z,2.23
2022-12-01T03:22:31.799Z,2.57
2022-12-01T03:25:02.203Z,3.77
2022-12-01T03:27:37.759Z,2.80
2022-12-01T03:30:10.320Z,3.00
2022-12-01T03:32:48.521Z,2.57
2022-12-01T03:35:29.136Z,3.93
2022-12-01T03:38:01.840Z,4.00
2022-12-01T03:40:31.212Z,2.83
2022-12-01T03:43:07.617Z,2.60
2022-12-01T03:45:46.313Z,3.43
2022-12-01T03:48:13.502Z,2.73
2022-12-01T03:50:56.671Z,3.63
2022-12-01T03:53:27.846Z,2.53
2022-12-01T03:56:03.792Z,3.60
2022-12-01T03:58:35.682Z,2.93
2022-12-01T04:01:04.141Z,6.63
2022-12-01T04:03:31.220Z,10.53
2022-12-01T04:05:58.179Z,14.13
2022-12-01T04:08:25.264Z,15.33
2022-12-01T04:10:52.137Z,10.77
2022-12-01T04:13:28.024Z,10.37
2022-12-01T04:15:55.347Z,5.53
2022-12-01T04:18:22.290Z,4.17
2022-12-01T04:20:50.093Z,2.30
2022-12-01T04:23:35.807Z,2.50
2022-12-01T04:26:04.608Z,3.43
2022-12-01T04:28:32.615Z,2.67
2022-12-01T04:30:59.466Z,2.57
2022-12-01T04:33:26.334Z,4.07
2022-12-01T04:35:59.970Z,2.93
2022-12-01T04:38:30.905Z,3.27
2022-12-01T04:40:58.182Z,3.53
2022-12-01T04:43:25.096Z,3.10
2022-12-01T04:45:51.919Z,5.07
2022-12-01T04:48:19.030Z,4.43
2022-12-01T04:50:49.049Z,5.50
2022-12-01T04:53:16.072Z,2.33
2022-12-01T04:55:42.944Z,3.40
2022-12-01T04:58:09.775Z,3.07
2022-12-01T05:00:37.349Z,2.87
2022-12-01T05:03:04.424Z,3.37
2022-12-01T05:05:32.971Z,5.13
2022-12-01T05:07:59.878Z,4.07
2022-12-01T05:10:27.606Z,3.63
2022-12-01T05:12:55.245Z,2.80
2022-12-01T05:15:22.094Z,4.87
2022-12-01T05:17:49.889Z,4.80
2022-12-01T05:20:40.839Z,4.80
2022-12-01T05:23:10.782Z,3.50
2022-12-01T05:25:44.928Z,3.13
2022-12-01T05:28:11.877Z,4.47
2022-12-01T05:30:38.810Z,4.40
2022-12-01T05:33:05.735Z,3.93
2022-12-01T05:35:35.774Z,6.00
2022-12-01T05:38:07.594Z,5.50
2022-12-01T05:40:37.818Z,8.10
2022-12-01T05:43:05.104Z,5.47
2022-12-01T05:45:32.880Z,7.33
2022-12-01T05:48:02.079Z,7.57
2022-12-01T05:50:30.397Z,5.63
2022-12-01T05:52:57.429Z,6.80
2022-12-01T05:55:24.371Z,6.93
2022-12-01T06:00:45.380Z,5.03
2022-12-01T06:03:13.736Z,4.10
2022-12-01T06:05:40.923Z,3.87
2022-12-01T06:08:08.345Z,5.20
2022-12-01T06:10:37.598Z,5.60
2022-12-01T06:13:07.621Z,6.17
2022-12-01T06:15:34.596Z,7.77
2022-12-01T06:18:02.427Z,5.23
2022-12-01T06:20:29.509Z,6.60
2022-12-01T06:22:56.416Z,7.07
2022-12-01T06:25:23.278Z,5.20
2022-12-01T06:27:50.101Z,5.33
2022-12-01T06:30:17.288Z,6.90
2022-12-01T06:32:44.189Z,8.17
2022-12-01T06:35:11.094Z,7.67
2022-12-01T06:37:39.398Z,5.13
2022-12-01T06:40:07.232Z,5.67
2022-12-01T06:42:34.064Z,6.67
2022-12-01T06:45:00.953Z,6.03
2022-12-01T06:47:27.945Z,5.07
2022-12-01T06:49:54.919Z,7.47
2022-12-01T06:52:22.116Z,4.63
2022-12-01T06:54:49.161Z,4.97
2022-12-01T06:57:16.387Z,4.83
2022-12-01T06:59:44.013Z,6.57
2022-12-01T07:02:11.944Z,7.80
2022-12-01T07:04:39.481Z,6.53
2022-12-01T07:07:06.538Z,5.60
2022-12-01T07:09:34.200Z,7.47
2022-12-01T07:12:01.234Z,6.27
2022-12-01T07:14:28.564Z,5.43
2022-12-01T07:16:55.615Z,4.77
2022-12-01T07:19:22.743Z,6.07
2022-12-01T07:21:49.858Z,6.73
2022-12-01T07:24:17.190Z,9.50
2022-12-01T07:26:44.536Z,7.63
2022-12-01T07:29:12.179Z,6.60
2022-12-01T07:31:39.553Z,9.50
2022-12-01T07:34:06.967Z,10.13
2022-12-01T07:36:34.224Z,12.30
2022-12-01T07:39:05.634Z,13.73
2022-12-01T07:41:32.604Z,4.80
2022-12-01T07:44:00.087Z,4.77
2022-12-01T07:46:28.387Z,5.03
2022-12-01T07:48:56.741Z,8.13
2022-12-01T07:51:25.128Z,6.93
2022-12-01T07:53:53.313Z,9.90
2022-12-01T07:56:22.733Z,7.70
2022-12-01T07:58:49.936Z,6.10
2022-12-01T08:01:22.616Z,6.03
2022-12-01T08:03:50.619Z,14.07
2022-12-01T08:06:18.523Z,8.43
2022-12-01T08:08:46.047Z,7.33
2022-12-01T08:11:17.083Z,8.20
2022-12-01T08:13:45.509Z,11.93
2022-12-01T08:16:14.554Z,5.57
2022-12-01T08:18:42.801Z,6.33
2022-12-01T08:21:12.688Z,10.17
2022-12-01T08:23:40.117Z,5.00
2022-12-01T08:26:09.906Z,3.37
2022-12-01T08:28:36.950Z,5.63
2022-12-01T08:31:15.105Z,6.77
2022-12-01T08:33:42.069Z,5.00
2022-12-01T08:36:09.100Z,6.67
2022-12-01T08:38:36.210Z,7.83
2022-12-01T08:41:05.247Z,5.90
2022-12-01T08:43:55.855Z,4.73
2022-12-01T08:46:22.079Z,6.70
2022-12-01T08:48:49.467Z,6.47
2022-12-01T08:51:18.764Z,7.73
2022-12-01T08:53:48.217Z,8.70
2022-12-01T08:56:18.308Z,6.53
2022-12-01T08:58:45.245Z,9.33
2022-12-01T09:01:15.173Z,8.73
2022-12-01T09:03:43.240Z,12.23
2022-12-01T09:06:15.398Z,10.30
2022-12-01T09:08:42.877Z,9.40
2022-12-01T09:11:16.347Z,12.07
2022-12-01T09:13:44.354Z,10.43
2022-12-01T09:16:16.314Z,9.27
2022-12-01T09:18:46.712Z,8.63
2022-12-01T09:21:16.665Z,10.33
2022-12-01T09:23:46.623Z,8.23
2022-12-01T09:26:19.204Z,7.60
2022-12-01T09:28:47.886Z,8.33
2022-12-01T09:31:18.571Z,8.60
2022-12-01T09:33:45.687Z,5.87
2022-12-01T09:36:13.206Z,13.07
2022-12-01T09:38:40.664Z,6.77
2022-12-01T09:41:19.175Z,7.13
2022-12-01T09:43:52.059Z,10.33
2022-12-01T09:46:26.244Z,10.43
2022-12-01T09:48:55.229Z,10.93
2022-12-01T09:51:24.949Z,7.77
2022-12-01T09:53:57.072Z,12.53
2022-12-01T09:56:31.004Z,13.27
2022-12-01T09:59:07.602Z,11.73
2022-12-01T10:01:36.718Z,11.03
2022-12-01T10:04:13.959Z,10.07
2022-12-01T10:07:02.648Z,10.83
2022-12-01T10:09:41.503Z,9.20
2022-12-01T10:12:22.641Z,8.50
2022-12-01T10:14:50.988Z,7.50
2022-12-01T10:17:32.845Z,8.43
2022-12-01T10:20:11.991Z,4.83
2022-12-01T10:22:56.947Z,5.23
2022-12-01T10:25:28.823Z,6.37
2022-12-01T10:28:20.762Z,6.40
2022-12-01T10:30:50.452Z,6.00
2022-12-01T10:33:25.027Z,7.80
2022-12-01T10:35:52.940Z,9.80
2022-12-01T10:38:27.351Z,9.20
2022-12-01T10:40:55.507Z,7.57
2022-12-01T10:43:46.744Z,7.07
2022-12-01T10:46:23.546Z,7.33
2022-12-01T10:49:00.810Z,3.50
2022-12-01T10:51:28.290Z,7.60
2022-12-01T10:54:03.390Z,6.00
2022-12-01T10:56:32.573Z,4.97
2022-12-01T10:59:04.623Z,6.20
2022-12-01T11:01:36.446Z,10.40
2022-12-01T11:04:22.153Z,6.07
2022-12-01T11:06:51.548Z,4.73
2022-12-01T11:09:26.587Z,5.17
2022-12-01T11:12:02.585Z,7.27
2022-12-01T11:14:52.370Z,7.00
2022-12-01T11:17:33.363Z,7.93
2022-12-01T11:20:24.749Z,6.57
2022-12-01T11:22:51.658Z,7.00
2022-12-01T11:25:23.201Z,7.70
2022-12-01T11:27:54.280Z,9.40
2022-12-01T11:30:27.616Z,10.57
2022-12-01T11:33:03.430Z,12.43
2022-12-01T11:35:37.779Z,5.80
2022-12-01T11:38:28.950Z,3.87
2022-12-01T11:40:58.211Z,5.73
2022-12-01T11:43:30.042Z,6.50
2022-12-01T11:46:09.950Z,7.03
2022-12-01T11:48:37.121Z,9.10
2022-12-01T11:51:06.481Z,7.27
2022-12-01T11:53:42.058Z,6.30
2022-12-01T11:56:29.009Z,6.97
2022-12-01T11:59:06.616Z,6.37
2022-12-01T12:01:53.402Z,8.63
2022-12-01T12:04:33.133Z,12.60
2022-12-01T12:07:21.146Z,11.43
2022-12-01T12:09:51.212Z,13.30
2022-12-01T12:12:29.931Z,10.27
2022-12-01T12:14:56.740Z,8.37
2022-12-01T12:17:47.291Z,8.93
2022-12-01T12:20:20.380Z,6.93
2022-12-01T12:22:55.276Z,7.80
2022-12-01T12:25:30.524Z,7.73
2022-12-01T12:28:19.086Z,6.87
2022-12-01T12:30:58.690Z,8.50
2022-12-01T12:33:43.581Z,9.60
2022-12-01T12:36:32.550Z,10.37
2022-12-01T12:38:59.900Z,14.23
2022-12-01T12:41:35.002Z,19.93
2022-12-01T12:44:15.951Z,15.63
2022-12-01T12:46:45.725Z,15.27
2022-12-01T12:49:42.505Z,10.87
2022-12-01T12:52:35.692Z,17.10
2022-12-01T12:55:19.987Z,14.90
2022-12-01T12:57:53.123Z,8.10
2022-12-01T13:00:28.624Z,9.83
2022-12-01T13:03:24.539Z,24.53
2022-12-01T13:06:12.889Z,17.17
2022-12-01T13:09:01.468Z,14.27
2022-12-01T13:11:57.463Z,8.60
2022-12-01T13:14:50.893Z,9.33
2022-12-01T13:17:32.426Z,5.30
2022-12-01T13:19:59.365Z,10.67
2022-12-01T13:22:33.226Z,10.33
2022-12-01T13:25:03.284Z,13.37
2022-12-01T13:27:40.484Z,9.83
2022-12-01T13:30:19.090Z,13.37
2022-12-01T13:32:46.620Z,9.63
2022-12-01T13:35:22.503Z,8.30
2022-12-01T13:37:49.626Z,18.97
2022-12-01T13:40:21.859Z,16.23
2022-12-01T13:43:11.727Z,16.37
2022-12-01T13:45:40.770Z,13.27
2022-12-01T13:48:28.639Z,16.10
2022-12-01T13:51:02.522Z,22.43
2022-12-01T13:53:39.221Z,18.70
2022-12-01T13:56:12.317Z,15.57
2022-12-01T13:58:48.770Z,14.57
2022-12-01T14:01:22.425Z,15.93
2022-12-01T14:03:57.257Z,18.20
2022-12-01T14:06:28.920Z,18.13
2022-12-01T14:09:26.534Z,18.40
2022-12-01T14:11:59.261Z,26.57
2022-12-01T14:14:32.821Z,24.33
2022-12-01T14:17:04.506Z,30.23
2022-12-01T14:19:52.273Z,29.67
2022-12-01T14:22:38.990Z,25.63
2022-12-01T14:25:21.057Z,13.03
2022-12-01T14:27:56.101Z,10.03
2022-12-01T14:30:45.725Z,6.67
2022-12-01T14:33:43.113Z,8.67
2022-12-01T14:36:48.760Z,9.07
2022-12-01T14:39:28.664Z,9.67
2022-12-01T14:41:58.650Z,10.53
2022-12-01T14:44:41.695Z,12.10
2022-12-01T14:47:11.525Z,10.90
2022-12-01T14:49:40.810Z,11.67
2022-12-01T14:52:24.495Z,17.80
2022-12-01T15:05:14.187Z,4.50
2022-12-01T15:07:45.700Z,7.63
2022-12-01T15:10:17.459Z,7.53
2022-12-01T15:12:45.045Z,9.33
2022-12-01T15:15:23.871Z,6.00
2022-12-01T15:17:52.520Z,6.30
2022-12-01T15:20:41.313Z,6.07
2022-12-01T15:23:17.225Z,6.40
2022-12-01T15:25:47.337Z,8.77
2022-12-01T15:28:21.284Z,7.03
2022-12-01T15:30:54.446Z,7.23
2022-12-01T15:33:28.372Z,8.70
2022-12-01T15:36:00.671Z,6.50
2022-12-01T15:38:32.708Z,5.87
2022-12-01T15:47:51.664Z,9.63
2022-12-01T15:50:33.822Z,7.90
2022-12-01T15:53:07.414Z,8.43
2022-12-01T15:55:38.425Z,9.93
2022-12-01T15:58:15.618Z,10.87
2022-12-01T16:00:59.000Z,6.80
2022-12-01T16:03:27.084Z,7.37
2022-12-01T16:05:54.600Z,9.53
2022-12-01T16:08:24.608Z,13.50
2022-12-01T16:11:11.460Z,19.57
2022-12-01T16:13:44.705Z,23.40
2022-12-01T16:16:30.136Z,23.73
2022-12-01T16:19:02.522Z,24.40
2022-12-01T16:21:44.066Z,32.70
2022-12-01T16:37:40.916Z,12.03
2022-12-01T16:40:08.798Z,13.47
2022-12-01T16:42:35.716Z,12.03
2022-12-01T16:45:02.664Z,14.43
2022-12-01T16:47:31.832Z,9.80
2022-12-01T16:49:58.733Z,9.60
2022-12-01T16:55:24.664Z,16.20
2022-12-01T16:57:51.656Z,22.43
2022-12-01T17:00:19.016Z,18.50
2022-12-01T17:02:45.989Z,14.07
2022-12-01T17:05:13.293Z,13.93
2022-12-01T17:07:41.759Z,11.93
2022-12-01T17:10:09.106Z,13.53
2022-12-01T17:12:36.277Z,11.37
2022-12-01T17:15:04.344Z,7.67
2022-12-01T17:17:31.476Z,7.60
2022-12-01T17:19:58.460Z,8.07
2022-12-01T17:22:25.520Z,9.37
2022-12-01T17:24:54.592Z,10.87
2022-12-01T17:27:24.917Z,8.07
2022-12-01T17:29:51.851Z,6.80
2022-12-01T17:32:19.059Z,8.47
2022-12-01T17:34:45.895Z,6.83
2022-12-01T17:37:17.523Z,11.33
2022-12-01T17:39:47.553Z,12.77
2022-12-01T17:42:14.440Z,11.93
2022-12-01T17:44:41.452Z,6.37
2022-12-01T17:47:08.340Z,6.77
2022-12-01T17:49:36.505Z,6.27
2022-12-01T17:52:07.732Z,8.83
2022-12-01T17:54:34.648Z,7.07
2022-12-01T17:57:01.554Z,7.70
2022-12-01T17:59:28.491Z,6.03
2022-12-01T18:01:55.589Z,5.50
2022-12-01T18:04:22.520Z,5.37
2022-12-01T18:06:54.060Z,8.50
2022-12-01T18:09:22.026Z,10.97
2022-12-01T18:11:49.501Z,9.50
2022-12-01T18:14:19.206Z,7.20
2022-12-01T18:16:48.863Z,6.20
2022-12-01T18:19:15.941Z,7.60
2022-12-01T18:21:42.974Z,9.53
2022-12-01T18:24:10.442Z,10.20
2022-12-01T18:26:40.189Z,10.57
2022-12-01T18:29:12.964Z,9.70
2022-12-01T18:31:41.369Z,13.77
2022-12-01T18:34:10.295Z,13.70
2022-12-01T18:36:39.097Z,12.77
2022-12-01T18:39:08.157Z,12.77
2022-12-01T18:41:36.507Z,14.53
2022-12-01T18:44:03.852Z,16.53
2022-12-01T18:46:31.505Z,15.70
2022-12-01T18:49:02.209Z,17.20
2022-12-01T19:32:05.548Z,16.67
2022-12-01T19:34:35.696Z,11.10
2022-12-01T19:37:02.938Z,16.47
2022-12-01T19:39:29.931Z,13.27
2022-12-01T19:42:00.898Z,9.63
2022-12-01T19:44:29.914Z,6.80
2022-12-01T19:46:57.204Z,7.83
2022-12-01T19:49:26.406Z,5.10
2022-12-01T19:51:53.440Z,2.97
2022-12-01T19:54:20.711Z,4.60
2022-12-01T19:56:50.169Z,5.20
2022-12-01T19:59:17.794Z,8.50
2022-12-01T20:01:46.240Z,10.17
2022-12-01T20:04:13.139Z,7.63
2022-12-01T20:06:40.062Z,8.30
2022-12-01T20:09:07.920Z,5.83
2022-12-01T20:11:37.432Z,5.17
2022-12-01T20:14:08.727Z,6.67
2022-12-01T20:16:37.359Z,5.77
2022-12-01T20:19:05.266Z,6.87
2022-12-01T20:21:35.374Z,9.03
2022-12-01T20:24:04.872Z,10.10
2022-12-01T20:26:37.825Z,6.20
2022-12-01T20:29:14.853Z,4.20
2022-12-01T20:31:42.711Z,5.53
2022-12-01T20:34:13.475Z,4.00
2022-12-01T20:36:40.763Z,4.97
2022-12-01T20:39:09.342Z,5.77
2022-12-01T20:41:36.622Z,6.53
2022-12-01T20:44:07.541Z,4.60
2022-12-01T20:46:37.140Z,5.90
2022-12-01T20:49:04.996Z,4.87
2022-12-01T20:51:33.338Z,4.57
2022-12-01T20:54:27.420Z,6.47
2022-12-01T20:56:52.857Z,5.33
2022-12-01T20:59:19.787Z,4.40
2022-12-01T21:01:46.754Z,4.27
2022-12-01T21:04:13.928Z,4.93
2022-12-01T21:06:43.804Z,5.17
2022-12-01T21:09:12.428Z,3.40
2022-12-01T21:12:08.150Z,6.77
2022-12-01T21:14:55.227Z,5.30
2022-12-01T21:48:18.865Z,2.53
2022-12-01T21:50:50.892Z,2.67
2022-12-01T21:53:21.506Z,2.77
2022-12-01T21:55:50.321Z,2.53
2022-12-01T21:58:27.416Z,2.60
2022-12-01T22:00:56.149Z,2.13
2022-12-01T22:03:33.232Z,2.10
2022-12-01T22:06:28.129Z,3.03
2022-12-01T22:08:54.625Z,5.03
2022-12-01T22:11:24.159Z,3.10
2022-12-01T22:14:09.349Z,4.83
2022-12-01T22:16:58.130Z,8.03
2022-12-01T22:19:32.331Z,5.97
2022-12-01T22:21:59.165Z,7.97
2022-12-01T22:24:34.532Z,8.10
2022-12-01T22:27:13.503Z,8.77
2022-12-01T22:29:45.069Z,10.37
2022-12-01T22:32:11.998Z,8.83
2022-12-01T22:34:40.538Z,7.13
2022-12-01T22:37:20.959Z,8.10
2022-12-01T22:39:51.887Z,8.50
2022-12-01T22:42:34.208Z,7.70
2022-12-01T22:45:22.874Z,7.60
2022-12-01T22:47:49.798Z,4.67
2022-12-01T22:50:31.927Z,7.20
2022-12-01T22:53:15.165Z,5.93
2022-12-01T22:55:42.637Z,5.37
2022-12-01T22:58:34.727Z,4.93
2022-12-01T23:01:07.810Z,5.47
2022-12-01T23:03:34.608Z,4.27
2022-12-01T23:06:01.517Z,3.93
2022-12-01T23:08:28.437Z,3.83
2022-12-01T23:10:55.318Z,5.80
2022-12-01T23:13:24.522Z,2.47
2022-12-01T23:15:55.850Z,2.60
2022-12-01T23:18:25.089Z,2.63
2022-12-01T23:20:57.224Z,2.50
2022-12-01T23:23:28.295Z,2.30
2022-12-01T23:25:56.096Z,2.70
2022-12-01T23:28:24.206Z,2.93
2022-12-01T23:30:54.560Z,3.27
2022-12-01T23:33:32.453Z,3.47
2022-12-01T23:36:17.119Z,2.60
2022-12-01T23:38:46.831Z,2.83
2022-12-01T23:41:23.984Z,2.97
2022-12-01T23:43:55.283Z,2.77
2022-12-01T23:46:24.509Z,2.10
2022-12-01T23:49:03.299Z,2.60
2022-12-01T23:51:31.345Z,3.23
2022-12-01T23:54:01.581Z,3.87
2022-12-01T23:56:31.545Z,3.07
2022-12-01T23:59:00.884Z,3.30
